createdAt,value
2022-07-30T00:00:31.980Z,32.15
2022-07-30T00:02:58.488Z,32.17
2022-07-30T00:05:24.935Z,32.15
2022-07-30T00:07:51.322Z,32.17
2022-07-30T00:10:17.794Z,32.16
2022-07-30T00:12:44.244Z,32.22
2022-07-30T00:15:10.651Z,32.23
2022-07-30T00:17:37.260Z,32.18
2022-07-30T00:20:04.026Z,32.25
2022-07-30T00:22:30.460Z,32.89
2022-07-30T00:24:56.913Z,32.46
2022-07-30T00:27:23.339Z,32.27
2022-07-30T00:29:49.760Z,32.22
2022-07-30T00:32:16.190Z,32.23
2022-07-30T00:34:42.599Z,32.20
2022-07-30T00:37:09.050Z,32.22
2022-07-30T00:39:35.548Z,32.18
2022-07-30T00:42:01.942Z,32.23
2022-07-30T00:44:28.345Z,32.22
2022-07-30T00:46:54.926Z,32.24
2022-07-30T00:49:21.390Z,32.23
2022-07-30T00:51:47.828Z,32.18
2022-07-30T00:54:14.288Z,32.88
2022-07-30T00:56:40.708Z,32.42
2022-07-30T00:59:07.156Z,32.30
2022-07-30T01:01:33.647Z,32.24
2022-07-30T01:04:00.155Z,32.26
2022-07-30T01:06:26.812Z,32.24
2022-07-30T01:08:53.369Z,32.26
2022-07-30T01:11:19.786Z,32.23
2022-07-30T01:13:46.216Z,32.29
2022-07-30T01:16:12.779Z,32.28
2022-07-30T01:18:39.240Z,32.25
2022-07-30T01:21:05.656Z,32.27
2022-07-30T01:23:32.093Z,32.33
2022-07-30T01:25:58.524Z,32.93
2022-07-30T01:28:25.001Z,32.48
2022-07-30T01:30:51.518Z,32.32
2022-07-30T01:33:17.922Z,32.35
2022-07-30T01:35:44.296Z,32.29
2022-07-30T01:38:10.722Z,32.23
2022-07-30T01:40:37.100Z,32.26
2022-07-30T01:43:03.493Z,32.25
2022-07-30T01:45:30.476Z,32.19
2022-07-30T01:48:00.232Z,32.24
2022-07-30T01:50:26.671Z,32.23
2022-07-30T01:52:53.166Z,32.23
2022-07-30T01:55:19.586Z,32.35
2022-07-30T01:57:45.988Z,32.97
2022-07-30T02:00:12.556Z,32.46
2022-07-30T02:02:38.949Z,32.35
2022-07-30T02:05:05.362Z,32.32
2022-07-30T02:07:31.835Z,32.26
2022-07-30T02:09:58.248Z,32.27
2022-07-30T02:12:24.692Z,32.25
2022-07-30T02:14:51.144Z,32.28
2022-07-30T02:17:18.878Z,32.25
2022-07-30T02:19:45.574Z,32.24
2022-07-30T02:22:13.331Z,32.28
2022-07-30T02:24:41.742Z,32.26
2022-07-30T02:27:08.166Z,32.31
2022-07-30T02:29:34.642Z,32.95
2022-07-30T02:32:01.094Z,32.48
2022-07-30T02:34:27.493Z,32.32
2022-07-30T02:36:54.316Z,32.28
2022-07-30T02:39:20.723Z,32.32
2022-07-30T02:41:49.843Z,32.30
2022-07-30T02:44:16.536Z,32.25
2022-07-30T02:46:43.069Z,32.29
2022-07-30T02:49:09.569Z,32.29
2022-07-30T02:51:36.034Z,32.27
2022-07-30T02:54:02.521Z,32.25
2022-07-30T02:56:28.985Z,32.32
2022-07-30T02:58:55.631Z,32.41
2022-07-30T03:01:22.043Z,32.99
2022-07-30T03:03:48.442Z,32.44
2022-07-30T03:06:15.306Z,32.32
2022-07-30T03:08:41.765Z,32.32
2022-07-30T03:11:08.170Z,32.29
2022-07-30T03:13:34.611Z,32.29
2022-07-30T03:16:01.154Z,32.27
2022-07-30T03:18:27.601Z,32.28
2022-07-30T03:20:54.061Z,32.25
2022-07-30T03:23:20.473Z,32.19
2022-07-30T03:25:46.877Z,32.24
2022-07-30T03:28:13.324Z,32.26
2022-07-30T03:30:39.722Z,32.30
2022-07-30T03:33:06.158Z,32.93
2022-07-30T03:35:32.715Z,32.54
2022-07-30T03:37:59.119Z,32.38
2022-07-30T03:40:25.517Z,32.24
2022-07-30T03:42:52.016Z,32.28
2022-07-30T03:45:18.442Z,32.26
2022-07-30T03:47:44.819Z,32.25
2022-07-30T03:50:11.306Z,32.25
2022-07-30T03:52:37.698Z,32.19
2022-07-30T03:55:07.455Z,32.20
2022-07-30T03:57:34.043Z,32.23
2022-07-30T04:00:00.452Z,32.25
2022-07-30T04:02:26.841Z,32.24
2022-07-30T04:04:54.764Z,32.79
2022-07-30T04:07:21.199Z,32.51
2022-07-30T04:09:47.580Z,32.29
2022-07-30T04:12:14.025Z,32.34
2022-07-30T04:14:40.406Z,32.27
2022-07-30T04:17:06.840Z,32.26
2022-07-30T04:19:33.278Z,32.25
2022-07-30T04:21:59.662Z,32.23
2022-07-30T04:24:26.041Z,32.22
2022-07-30T04:26:52.468Z,32.22
2022-07-30T04:29:22.669Z,32.22
2022-07-30T04:31:50.467Z,32.22
2022-07-30T04:34:17.020Z,32.22
2022-07-30T04:36:43.426Z,32.73
2022-07-30T04:39:09.848Z,32.54
2022-07-30T04:41:36.286Z,32.30
2022-07-30T04:44:15.674Z,32.28
2022-07-30T04:46:42.225Z,32.25
2022-07-30T04:49:08.754Z,32.25
2022-07-30T04:51:35.248Z,32.28
2022-07-30T04:54:01.712Z,32.20
2022-07-30T04:56:28.100Z,32.23
2022-07-30T04:58:54.493Z,32.21
2022-07-30T05:01:20.953Z,32.23
2022-07-30T05:03:47.392Z,32.20
2022-07-30T05:06:13.775Z,32.22
2022-07-30T05:08:40.244Z,32.78
2022-07-30T05:11:06.671Z,32.59
2022-07-30T05:13:34.401Z,32.34
2022-07-30T05:16:04.688Z,32.32
2022-07-30T05:18:31.120Z,32.27
2022-07-30T05:20:57.501Z,32.24
2022-07-30T05:23:23.952Z,32.22
2022-07-30T05:25:50.413Z,32.25
2022-07-30T05:28:16.790Z,32.20
2022-07-30T05:30:44.536Z,32.23
2022-07-30T05:33:15.592Z,32.21
2022-07-30T05:35:42.595Z,32.23
2022-07-30T05:38:09.149Z,32.25
2022-07-30T05:40:35.538Z,32.73
2022-07-30T05:43:01.914Z,32.58
2022-07-30T05:45:28.364Z,32.28
2022-07-30T05:47:54.795Z,32.28
2022-07-30T05:50:21.184Z,32.27
2022-07-30T05:52:47.649Z,32.28
2022-07-30T05:55:14.090Z,32.23
2022-07-30T05:57:40.572Z,32.26
2022-07-30T06:00:07.126Z,32.27
2022-07-30T06:02:37.113Z,32.25
2022-07-30T06:05:03.615Z,32.27
2022-07-30T06:07:30.097Z,32.26
2022-07-30T06:09:56.530Z,32.24
2022-07-30T06:12:22.911Z,32.73
2022-07-30T06:14:49.396Z,32.65
2022-07-30T06:17:15.776Z,32.38
2022-07-30T06:19:42.300Z,32.33
2022-07-30T06:22:08.730Z,32.29
2022-07-30T06:24:35.131Z,32.29
2022-07-30T06:27:01.867Z,32.28
2022-07-30T06:29:28.513Z,32.25
2022-07-30T06:31:54.917Z,32.23
2022-07-30T06:34:21.329Z,32.20
2022-07-30T06:36:47.897Z,32.26
2022-07-30T06:39:14.332Z,32.23
2022-07-30T06:42:00.774Z,32.26
2022-07-30T06:44:27.184Z,32.67
2022-07-30T06:46:54.123Z,32.86
2022-07-30T06:49:20.818Z,32.37
2022-07-30T06:51:47.344Z,32.34
2022-07-30T06:54:13.741Z,32.28
2022-07-30T06:56:40.285Z,32.28
2022-07-30T06:59:06.673Z,32.31
2022-07-30T07:01:33.156Z,32.32
2022-07-30T07:03:59.727Z,32.30
2022-07-30T07:06:26.236Z,32.27
2022-07-30T07:08:52.668Z,32.28
2022-07-30T07:11:19.437Z,32.30
2022-07-30T07:13:52.985Z,32.33
2022-07-30T07:16:19.539Z,32.81
2022-07-30T07:18:45.985Z,32.82
2022-07-30T07:21:12.406Z,32.41
2022-07-30T07:23:41.716Z,32.38
2022-07-30T07:26:08.557Z,32.34
2022-07-30T07:28:35.021Z,32.35
2022-07-30T07:31:01.679Z,32.37
2022-07-30T07:33:28.190Z,32.37
2022-07-30T07:35:54.742Z,32.38
2022-07-30T07:38:21.181Z,32.38
2022-07-30T07:40:47.626Z,32.42
2022-07-30T07:43:14.006Z,32.37
2022-07-30T07:45:40.508Z,32.42
2022-07-30T07:48:06.932Z,32.85
2022-07-30T07:50:33.433Z,32.78
2022-07-30T07:53:00.088Z,32.52
2022-07-30T07:55:26.498Z,32.45
2022-07-30T07:57:52.893Z,32.44
2022-07-30T08:00:20.695Z,32.40
2022-07-30T08:02:47.228Z,32.45
2022-07-30T08:05:13.710Z,32.46
2022-07-30T08:07:40.125Z,32.46
2022-07-30T08:10:06.550Z,32.47
2022-07-30T08:12:32.970Z,32.51
2022-07-30T08:14:59.410Z,32.55
2022-07-30T08:17:25.830Z,32.57
2022-07-30T08:19:52.225Z,33.11
2022-07-30T08:22:18.699Z,32.77
2022-07-30T08:24:45.118Z,32.63
2022-07-30T08:27:11.560Z,32.61
2022-07-30T08:29:38.079Z,32.63
2022-07-30T08:32:04.902Z,32.61
2022-07-30T08:34:31.672Z,32.63
2022-07-30T08:36:58.202Z,32.64
2022-07-30T08:39:24.577Z,32.67
2022-07-30T08:41:51.069Z,32.69
2022-07-30T08:44:17.586Z,32.68
2022-07-30T08:46:47.255Z,32.75
2022-07-30T08:49:13.936Z,32.81
2022-07-30T08:51:40.529Z,33.41
2022-07-30T08:54:06.971Z,32.89
2022-07-30T08:56:33.416Z,32.74
2022-07-30T08:58:59.914Z,32.74
2022-07-30T09:01:26.304Z,32.80
2022-07-30T09:03:52.727Z,32.82
2022-07-30T09:06:19.295Z,32.78
2022-07-30T09:08:45.680Z,32.79
2022-07-30T09:11:12.085Z,32.78
2022-07-30T09:13:39.049Z,32.85
2022-07-30T09:16:05.682Z,32.85
2022-07-30T09:18:32.118Z,32.85
2022-07-30T09:20:58.579Z,32.86
2022-07-30T09:23:25.010Z,33.42
2022-07-30T09:25:51.448Z,33.06
2022-07-30T09:28:18.037Z,32.86
2022-07-30T09:30:44.506Z,32.86
2022-07-30T09:33:10.893Z,32.84
2022-07-30T09:35:39.117Z,32.88
2022-07-30T09:38:06.665Z,32.86
2022-07-30T09:40:33.234Z,32.88
2022-07-30T09:42:59.670Z,32.88
2022-07-30T09:45:26.049Z,32.92
2022-07-30T09:48:01.558Z,32.99
2022-07-30T09:50:30.397Z,32.94
2022-07-30T09:52:57.177Z,33.01
2022-07-30T09:55:23.664Z,33.51
2022-07-30T09:57:51.474Z,33.13
2022-07-30T10:00:23.707Z,32.96
2022-07-30T10:02:50.560Z,32.97
2022-07-30T10:05:17.125Z,32.92
2022-07-30T10:07:45.626Z,32.96
2022-07-30T10:10:14.852Z,32.97
2022-07-30T10:12:43.622Z,33.00
2022-07-30T10:15:13.626Z,33.00
2022-07-30T10:17:40.190Z,32.99
2022-07-30T10:20:08.921Z,32.97
2022-07-30T10:22:35.529Z,33.02
2022-07-30T10:25:02.043Z,33.05
2022-07-30T10:27:28.584Z,33.52
2022-07-30T10:29:58.725Z,33.26
2022-07-30T10:32:30.850Z,33.03
2022-07-30T10:34:57.557Z,33.02
2022-07-30T10:37:24.464Z,33.01
2022-07-30T10:39:52.559Z,33.03
2022-07-30T10:42:19.806Z,33.00
2022-07-30T10:44:47.277Z,33.00
2022-07-30T10:47:13.909Z,33.02
2022-07-30T10:49:40.547Z,33.06
2022-07-30T10:52:08.196Z,33.05
2022-07-30T10:54:39.146Z,33.09
2022-07-30T10:57:06.483Z,33.12
2022-07-30T10:59:32.894Z,33.53
2022-07-30T11:02:03.509Z,33.49
2022-07-30T11:04:30.248Z,33.11
2022-07-30T11:06:56.698Z,33.07
2022-07-30T11:09:23.133Z,33.14
2022-07-30T11:12:00.961Z,33.10
2022-07-30T11:14:32.746Z,33.13
2022-07-30T11:16:59.173Z,33.11
2022-07-30T11:19:55.473Z,33.12
2022-07-30T11:22:12.703Z,33.14
2022-07-30T11:24:39.156Z,33.11
2022-07-30T11:27:05.558Z,33.15
2022-07-30T11:29:35.370Z,33.18
2022-07-30T11:32:17.568Z,33.57
2022-07-30T11:34:44.020Z,33.69
2022-07-30T11:37:18.269Z,33.18
2022-07-30T11:39:48.485Z,33.17
2022-07-30T11:42:15.868Z,33.11
2022-07-30T11:44:42.260Z,33.17
2022-07-30T11:47:08.746Z,33.16
2022-07-30T11:49:35.140Z,33.18
2022-07-30T11:52:01.673Z,33.18
2022-07-30T11:54:28.257Z,33.17
2022-07-30T11:56:54.650Z,33.20
2022-07-30T11:59:21.048Z,33.25
2022-07-30T12:01:47.537Z,33.20
2022-07-30T12:04:13.918Z,33.24
2022-07-30T12:06:40.330Z,33.69
2022-07-30T12:09:06.833Z,33.47
2022-07-30T12:11:36.773Z,33.28
2022-07-30T12:14:03.197Z,33.21
2022-07-30T12:16:29.657Z,33.23
2022-07-30T12:18:56.102Z,33.20
2022-07-30T12:21:22.548Z,33.19
2022-07-30T12:23:49.021Z,33.22
2022-07-30T12:26:15.441Z,33.22
2022-07-30T12:28:41.850Z,33.24
2022-07-30T12:31:08.310Z,33.24
2022-07-30T12:33:35.957Z,33.29
2022-07-30T12:36:03.791Z,33.24
2022-07-30T12:38:30.241Z,33.35
2022-07-30T12:40:56.651Z,33.89
2022-07-30T12:43:23.054Z,33.33
2022-07-30T12:45:51.993Z,33.22
2022-07-30T12:48:20.686Z,33.16
2022-07-30T12:50:48.529Z,33.18
2022-07-30T12:53:14.994Z,33.12
2022-07-30T12:55:41.374Z,33.12
2022-07-30T12:58:08.961Z,33.12
2022-07-30T13:00:35.569Z,33.11
2022-07-30T13:03:01.968Z,33.07
2022-07-30T13:05:28.354Z,33.16
2022-07-30T13:07:54.910Z,33.13
2022-07-30T13:10:21.344Z,33.11
2022-07-30T13:12:47.820Z,33.49
2022-07-30T13:15:14.282Z,33.51
2022-07-30T13:17:40.702Z,33.18
2022-07-30T13:20:07.178Z,33.10
2022-07-30T13:22:33.637Z,33.02
2022-07-30T13:25:00.022Z,33.00
2022-07-30T13:27:26.417Z,33.01
2022-07-30T13:29:52.871Z,33.02
2022-07-30T13:32:19.299Z,33.03
2022-07-30T13:34:45.715Z,33.02
2022-07-30T13:37:12.166Z,33.07
2022-07-30T13:39:38.539Z,33.07
2022-07-30T13:42:04.907Z,33.06
2022-07-30T13:44:32.868Z,33.07
2022-07-30T13:47:01.882Z,33.69
2022-07-30T13:49:28.712Z,33.18
2022-07-30T13:51:56.692Z,33.07
2022-07-30T13:54:23.226Z,33.05
2022-07-30T13:56:49.619Z,33.06
2022-07-30T13:59:16.060Z,32.99
2022-07-30T14:01:42.488Z,32.96
2022-07-30T14:04:08.923Z,33.00
2022-07-30T14:06:35.392Z,32.99
2022-07-30T14:09:01.777Z,32.96
2022-07-30T14:11:28.154Z,32.97
2022-07-30T14:13:54.584Z,33.01
2022-07-30T14:16:43.755Z,33.01
2022-07-30T14:19:07.393Z,33.48
2022-07-30T14:21:33.812Z,33.28
2022-07-30T14:24:00.189Z,33.00
2022-07-30T14:26:30.250Z,32.96
2022-07-30T14:29:03.025Z,32.97
2022-07-30T14:31:29.504Z,32.93
2022-07-30T14:34:02.921Z,32.95
2022-07-30T14:36:29.362Z,32.94
2022-07-30T14:38:56.815Z,32.94
2022-07-30T14:41:23.214Z,32.93
2022-07-30T14:43:51.747Z,32.91
2022-07-30T14:46:18.143Z,32.95
2022-07-30T14:48:44.558Z,32.96
2022-07-30T14:51:17.631Z,33.24
2022-07-30T14:53:47.385Z,33.55
2022-07-30T14:56:17.566Z,33.09
2022-07-30T14:58:44.352Z,32.99
2022-07-30T15:01:15.882Z,32.92
2022-07-30T15:03:43.374Z,32.92
2022-07-30T15:06:09.767Z,32.92
2022-07-30T15:08:36.153Z,32.89
2022-07-30T15:11:02.714Z,32.88
2022-07-30T15:13:32.912Z,32.87
2022-07-30T15:15:59.297Z,32.90
2022-07-30T15:18:25.736Z,32.89
2022-07-30T15:20:52.142Z,32.90
2022-07-30T15:23:18.535Z,32.88
2022-07-30T15:25:44.956Z,33.33
2022-07-30T15:28:11.419Z,33.32
2022-07-30T15:30:37.791Z,33.00
2022-07-30T15:33:04.295Z,32.92
2022-07-30T15:35:30.731Z,32.93
2022-07-30T15:37:58.331Z,32.85
2022-07-30T15:40:24.819Z,32.88
2022-07-30T15:42:51.224Z,32.91
2022-07-30T15:45:18.519Z,32.89
2022-07-30T15:47:45.185Z,32.89
2022-07-30T15:50:11.608Z,32.92
2022-07-30T15:52:37.980Z,32.85
2022-07-30T15:55:04.420Z,32.92
2022-07-30T15:57:30.804Z,32.90
2022-07-30T15:59:57.278Z,33.44
2022-07-30T16:02:23.752Z,33.14
2022-07-30T16:04:50.140Z,32.93
2022-07-30T16:07:19.142Z,32.86
2022-07-30T16:09:45.596Z,32.88
2022-07-30T16:12:12.013Z,32.91
2022-07-30T16:14:38.401Z,32.83
2022-07-30T16:17:04.962Z,32.82
2022-07-30T16:19:31.367Z,32.83
2022-07-30T16:21:57.745Z,32.83
2022-07-30T16:24:24.185Z,32.84
2022-07-30T16:26:50.563Z,32.88
2022-07-30T16:29:16.952Z,32.90
2022-07-30T16:31:43.385Z,33.26
2022-07-30T16:34:09.805Z,33.45
2022-07-30T16:36:36.244Z,32.97
2022-07-30T16:39:02.694Z,32.93
2022-07-30T16:41:29.087Z,32.90
2022-07-30T16:43:55.500Z,32.90
2022-07-30T16:46:21.939Z,32.90
2022-07-30T16:48:50.496Z,32.84
2022-07-30T16:51:17.142Z,32.88
2022-07-30T16:53:43.731Z,32.87
2022-07-30T16:56:10.144Z,32.87
2022-07-30T16:58:36.523Z,32.91
2022-07-30T17:01:03.064Z,32.93
2022-07-30T17:03:29.542Z,32.95
2022-07-30T17:05:56.283Z,33.52
2022-07-30T17:08:24.868Z,33.05
2022-07-30T17:10:51.800Z,32.89
2022-07-30T17:13:18.205Z,32.90
2022-07-30T17:15:46.706Z,32.81
2022-07-30T17:18:13.380Z,32.83
2022-07-30T17:20:39.753Z,32.87
2022-07-30T17:23:06.289Z,32.85
2022-07-30T17:25:32.667Z,32.85
2022-07-30T17:27:59.116Z,32.83
2022-07-30T17:30:25.566Z,32.81
2022-07-30T17:32:51.947Z,32.83
2022-07-30T17:35:18.312Z,32.87
2022-07-30T17:37:44.776Z,33.27
2022-07-30T17:40:30.635Z,33.38
2022-07-30T17:42:57.599Z,32.91
2022-07-30T17:45:23.970Z,32.88
2022-07-30T17:47:50.358Z,32.84
2022-07-30T17:50:16.783Z,32.84
2022-07-30T17:52:43.154Z,32.87
2022-07-30T17:55:09.529Z,32.84
2022-07-30T17:57:35.930Z,32.84
2022-07-30T18:00:02.325Z,32.87
2022-07-30T18:02:29.307Z,32.88
2022-07-30T18:04:56.539Z,32.89
2022-07-30T18:07:23.351Z,32.90
2022-07-30T18:09:49.989Z,32.98
2022-07-30T18:12:16.463Z,33.64
2022-07-30T18:14:42.873Z,33.10
2022-07-30T18:17:14.128Z,32.94
2022-07-30T18:19:41.092Z,32.88
2022-07-30T18:22:07.565Z,32.92
2022-07-30T18:24:33.952Z,32.89
2022-07-30T18:27:07.043Z,32.90
2022-07-30T18:29:33.426Z,32.87
2022-07-30T18:32:00.219Z,32.89
2022-07-30T18:34:26.923Z,32.85
2022-07-30T18:36:53.304Z,32.90
2022-07-30T18:39:19.756Z,32.88
2022-07-30T18:41:46.201Z,32.87
2022-07-30T18:44:12.586Z,33.12
2022-07-30T18:46:38.978Z,33.60
2022-07-30T18:49:21.195Z,32.95
2022-07-30T18:51:51.788Z,32.88
2022-07-30T18:54:18.580Z,32.84
2022-07-30T18:56:44.965Z,32.84
2022-07-30T18:59:11.394Z,32.81
2022-07-30T19:01:37.928Z,32.86
2022-07-30T19:04:05.392Z,32.85
2022-07-30T19:06:31.770Z,32.84
2022-07-30T19:08:58.254Z,32.84
2022-07-30T19:11:24.643Z,32.85
2022-07-30T19:13:51.033Z,32.85
2022-07-30T19:16:17.455Z,32.90
2022-07-30T19:18:43.835Z,33.46
2022-07-30T19:21:14.022Z,33.02
2022-07-30T19:23:40.762Z,32.90
2022-07-30T19:26:07.233Z,32.86
2022-07-30T19:28:33.619Z,32.81
2022-07-30T19:31:00.085Z,32.84
2022-07-30T19:33:26.469Z,32.86
2022-07-30T19:35:52.864Z,32.85
2022-07-30T19:38:21.734Z,32.86
2022-07-30T19:40:50.417Z,32.89
2022-07-30T19:43:16.821Z,32.89
2022-07-30T19:45:46.749Z,32.93
2022-07-30T19:48:14.196Z,32.98
2022-07-30T19:50:40.594Z,33.48
2022-07-30T19:53:07.614Z,33.27
2022-07-30T19:55:35.496Z,33.00
2022-07-30T19:58:02.459Z,32.98
2022-07-30T20:00:30.101Z,32.96
2022-07-30T20:02:56.878Z,32.99
2022-07-30T20:05:24.916Z,33.01
2022-07-30T20:07:51.564Z,33.02
2022-07-30T20:10:18.416Z,32.99
2022-07-30T20:12:49.408Z,32.99
2022-07-30T20:15:16.648Z,32.99
2022-07-30T20:17:43.059Z,32.97
2022-07-30T20:20:09.533Z,32.94
2022-07-30T20:22:36.099Z,33.25
2022-07-30T20:25:02.512Z,33.55
2022-07-30T20:27:36.161Z,33.01
2022-07-30T20:30:03.871Z,32.95
2022-07-30T20:32:30.295Z,32.94
2022-07-30T20:34:56.720Z,32.91
2022-07-30T20:37:23.294Z,32.91
2022-07-30T20:39:53.694Z,32.89
2022-07-30T20:42:21.760Z,32.90
2022-07-30T20:44:50.885Z,32.91
2022-07-30T20:47:17.361Z,32.94
2022-07-30T20:50:01.468Z,32.90
2022-07-30T20:52:28.141Z,32.92
2022-07-30T20:54:55.899Z,32.95
2022-07-30T20:57:56.989Z,33.47
2022-07-30T21:00:08.694Z,33.10
2022-07-30T21:02:35.158Z,32.92
2022-07-30T21:05:01.608Z,32.93
2022-07-30T21:07:28.107Z,32.92
2022-07-30T21:10:03.359Z,32.92
2022-07-30T21:12:32.761Z,32.88
2022-07-30T21:14:59.694Z,32.88
2022-07-30T21:17:26.299Z,32.86
2022-07-30T21:19:54.662Z,32.85
2022-07-30T21:22:21.907Z,32.83
2022-07-30T21:24:50.380Z,32.84
2022-07-30T21:27:19.902Z,32.87
2022-07-30T21:29:46.300Z,33.28
2022-07-30T21:32:14.056Z,33.15
2022-07-30T21:34:44.636Z,32.96
2022-07-30T21:37:12.956Z,32.92
2022-07-30T21:39:40.363Z,32.93
2022-07-30T21:42:06.891Z,32.89
2022-07-30T21:44:33.320Z,32.89
2022-07-30T21:47:00.059Z,32.92
2022-07-30T21:49:27.656Z,32.95
2022-07-30T21:51:58.071Z,32.92
2022-07-30T21:54:28.969Z,32.95
2022-07-30T21:56:58.223Z,32.99
2022-07-30T21:59:24.946Z,32.97
2022-07-30T22:01:55.244Z,33.00
2022-07-30T22:04:21.717Z,33.63
2022-07-30T22:06:48.218Z,33.19
2022-07-30T22:09:19.108Z,33.03
2022-07-30T22:12:01.213Z,33.03
2022-07-30T22:14:28.446Z,32.99
2022-07-30T22:16:54.846Z,32.92
2022-07-30T22:19:21.303Z,32.94
2022-07-30T22:21:47.749Z,32.88
2022-07-30T22:24:26.228Z,32.86
2022-07-30T22:26:56.581Z,32.90
2022-07-30T22:29:24.035Z,32.82
2022-07-30T22:31:50.415Z,32.90
2022-07-30T22:34:16.991Z,32.87
2022-07-30T22:36:45.601Z,33.33
2022-07-30T22:39:12.165Z,33.24
2022-07-30T22:41:38.707Z,32.94
2022-07-30T22:44:06.542Z,32.89
2022-07-30T22:46:39.427Z,32.87
2022-07-30T22:49:23.428Z,32.84
2022-07-30T22:52:01.252Z,32.86
2022-07-30T22:54:34.857Z,32.83
2022-07-30T22:57:04.011Z,32.81
2022-07-30T22:59:59.765Z,32.81
2022-07-30T23:02:17.095Z,32.79
2022-07-30T23:04:44.364Z,32.80
2022-07-30T23:07:10.737Z,32.81
2022-07-30T23:09:49.488Z,33.20
2022-07-30T23:12:20.162Z,33.24
2022-07-30T23:14:48.408Z,32.86
2022-07-30T23:17:14.791Z,32.82
2022-07-30T23:19:41.175Z,32.82
2022-07-30T23:22:07.663Z,32.81
2022-07-30T23:24:34.062Z,32.78
2022-07-30T23:27:00.827Z,32.82
2022-07-30T23:29:27.543Z,32.83
2022-07-30T23:31:53.914Z,32.76
2022-07-30T23:34:20.346Z,32.83
2022-07-30T23:36:46.805Z,32.79
2022-07-30T23:39:13.243Z,32.83
2022-07-30T23:41:39.633Z,32.81
2022-07-30T23:44:06.135Z,33.19
2022-07-30T23:46:32.513Z,33.14
2022-07-30T23:48:58.934Z,32.86
2022-07-30T23:51:25.493Z,32.80
2022-07-30T23:53:59.895Z,32.76
2022-07-30T23:56:26.337Z,32.75
2022-07-30T23:58:52.766Z,32.72
